This is the latest recevied weather packets stored in our database for station/object W4KAB. If no packets are shown the sender has not sent any weather packets the latest 1 day(s).
| Time | Temp. | Humidity | Pressure | Rain* | Wind** | Luminosity | Snow |
|---|---|---|---|---|---|---|---|
| 1778103337 | 21.67° C | 80% | 1013.6 hPa | 0 mm | - | 41 W/m² | - |
| 1778101212 | 22.22° C | 80% | 1012.9 hPa | 0 mm | - | 67 W/m² | - |
| 1778100604 | 22.22° C | 79% | 1012.6 hPa | 0 mm | - | 72 W/m² | - |
| 1778099999 | 22.22° C | 78% | 1013 hPa | 0 mm | - | 120 W/m² | - |
| 1778099697 | 22.22° C | 78% | 1012.9 hPa | 0 mm | - | 95 W/m² | - |
| 1778098181 | 22.22° C | 78% | 1013.8 hPa | 0 mm | - | 276 W/m² | - |
| 1778096059 | 21.11° C | 82% | 1013.8 hPa | 0 mm | - | 242 W/m² | - |
| 1778095755 | 21.11° C | 82% | 1013.5 hPa | 0 mm | - | 141 W/m² | - |
| 1778095452 | 21.67° C | 80% | 1013.9 hPa | 0 mm | - | 219 W/m² | - |
| 1778095149 | 21.11° C | 82% | 1013.6 hPa | 0 mm | - | 270 W/m² | - |
| 1778092724 | 21.11° C | 83% | 1013.6 hPa | 0 mm | - | 290 W/m² | - |
| 1778092419 | 20.56° C | 85% | 1013.5 hPa | 0 mm | - | 246 W/m² | - |
| 1778090906 | 20° C | 88% | 1014 hPa | 0 mm | - | 163 W/m² | - |
| 1778090602 | 20° C | 88% | 1014 hPa | 0 mm | - | 176 W/m² | - |
| 1778089995 | 20° C | 90% | 1014.4 hPa | 0 mm | - | 187 W/m² | - |
| 1778088481 | 17.78° C | 94% | 1014.5 hPa | 0 mm | - | 117 W/m² | - |
| 1778088177 | 17.78° C | 95% | 1015 hPa | 0 mm | - | 99 W/m² | - |
| 1778087875 | 17.78° C | 94% | 1015.4 hPa | 0 mm | - | 79 W/m² | - |
| 1778087572 | 17.78° C | 93% | 1015.3 hPa | 1.78 mm | - | 73 W/m² | - |
| 1778085755 | 17.78° C | 89% | 1015.7 hPa | 0 mm | - | 53 W/m² | - |
| 1778084843 | 17.78° C | 86% | 1016 hPa | 0 mm | - | 61 W/m² | - |
| 1778083633 | 18.33° C | 81% | 1015.9 hPa | 0 mm | - | 84 W/m² | - |
| 1778081592 | 17.78° C | 84% | 1015.3 hPa | 0 mm | - | 56 W/m² | - |
| 1778081289 | 18.33° C | 83% | 1015.3 hPa | 0 mm | - | 39 W/m² | - |
| 1778080986 | 18.33° C | 83% | 1015.5 hPa | 0 mm | - | 51 W/m² | - |
* Rain latest hour (hover to see other rain measurements)
** Current wind speed in m/s (hover to see current wind gust speed)